createdAt,value
2022-10-29T00:01:22.038Z,96.96
2022-10-29T00:03:50.651Z,96.20
2022-10-29T00:06:17.807Z,94.99
2022-10-29T00:08:44.893Z,94.50
2022-10-29T00:11:14.478Z,93.86
2022-10-29T00:13:42.933Z,93.54
2022-10-29T00:16:11.721Z,92.55
2022-10-29T00:18:39.611Z,93.73
2022-10-29T00:21:11.574Z,95.10
2022-10-29T00:23:39.431Z,95.53
2022-10-29T00:26:07.782Z,92.29
2022-10-29T00:28:35.025Z,92.26
2022-10-29T00:31:07.224Z,92.38
2022-10-29T00:33:34.413Z,94.08
2022-10-29T00:36:03.897Z,92.92
2022-10-29T00:38:33.257Z,94.68
2022-10-29T00:41:00.433Z,95.29
2022-10-29T00:43:27.350Z,93.41
2022-10-29T00:46:01.268Z,93.86
2022-10-29T00:48:32.416Z,94.14
2022-10-29T00:51:04.659Z,95.29
2022-10-29T00:53:36.715Z,95.88
2022-10-29T00:56:06.725Z,94.90
2022-10-29T00:58:33.624Z,95.67
2022-10-29T01:01:01.212Z,94.86
2022-10-29T01:03:28.208Z,94.99
2022-10-29T01:05:55.807Z,98.04
2022-10-29T01:08:24.142Z,94.16
2022-10-29T01:11:01.736Z,92.86
2022-10-29T01:13:43.998Z,92.47
2022-10-29T01:16:21.142Z,94.46
2022-10-29T01:18:53.850Z,93.79
2022-10-29T01:21:48.386Z,94.29
2022-10-29T01:24:52.034Z,95.17
2022-10-29T01:27:49.043Z,95.38
2022-10-29T01:30:23.419Z,96.28
2022-10-29T01:33:01.906Z,93.43
2022-10-29T01:35:38.313Z,92.73
2022-10-29T01:38:14.587Z,92.24
2022-10-29T01:40:49.836Z,94.30
2022-10-29T01:43:23.439Z,94.44
2022-10-29T01:45:56.072Z,95.76
2022-10-29T01:48:33.352Z,94.81
2022-10-29T01:51:06.303Z,94.07
2022-10-29T01:53:36.261Z,95.79
2022-10-29T01:56:03.273Z,96.34
2022-10-29T01:58:31.940Z,96.84
2022-10-29T02:01:07.225Z,94.90
2022-10-29T02:03:47.480Z,94.38
2022-10-29T02:06:24.310Z,91.69
2022-10-29T02:09:01.853Z,93.58
2022-10-29T02:11:41.703Z,96.57
2022-10-29T02:14:16.372Z,93.72
2022-10-29T02:16:44.061Z,91.56
2022-10-29T02:19:13.719Z,94.50
2022-10-29T02:21:40.609Z,94.17
2022-10-29T02:24:08.946Z,92.91
2022-10-29T02:26:37.195Z,91.79
2022-10-29T02:29:04.198Z,91.87
2022-10-29T02:31:31.174Z,91.46
2022-10-29T02:33:57.964Z,91.13
2022-10-29T02:36:26.124Z,92.95
2022-10-29T02:38:53.149Z,93.48
2022-10-29T02:41:20.069Z,91.52
2022-10-29T02:43:46.795Z,91.27
2022-10-29T02:46:15.755Z,95.03
2022-10-29T02:48:43.015Z,91.68
2022-10-29T02:51:11.864Z,92.02
2022-10-29T02:53:40.283Z,92.33
2022-10-29T02:56:08.580Z,93.11
2022-10-29T02:58:38.797Z,90.68
2022-10-29T03:01:07.932Z,91.56
2022-10-29T03:03:36.289Z,91.70
2022-10-29T03:06:03.351Z,93.08
2022-10-29T03:08:30.131Z,92.85
2022-10-29T03:10:59.116Z,93.72
2022-10-29T03:13:26.048Z,91.15
2022-10-29T03:15:53.065Z,90.29
2022-10-29T03:18:19.945Z,90.25
2022-10-29T03:20:46.753Z,91.15
2022-10-29T03:23:13.892Z,94.38
2022-10-29T03:25:41.123Z,95.46
2022-10-29T03:28:10.856Z,95.12
2022-10-29T03:30:37.742Z,92.95
2022-10-29T03:33:04.528Z,93.78
2022-10-29T03:35:31.420Z,89.77
2022-10-29T03:37:58.652Z,90.68
2022-10-29T03:40:25.654Z,91.90
2022-10-29T03:42:53.803Z,92.85
2022-10-29T03:45:22.818Z,88.47
2022-10-29T03:47:50.365Z,89.07
2022-10-29T03:50:17.747Z,89.28
2022-10-29T03:52:44.599Z,89.73
2022-10-29T03:55:11.553Z,88.71
2022-10-29T03:57:38.298Z,89.37
2022-10-29T04:00:06.249Z,90.33
2022-10-29T04:02:34.818Z,90.34
2022-10-29T04:05:02.828Z,88.34
2022-10-29T04:07:29.703Z,88.95
2022-10-29T04:09:56.705Z,90.05
2022-10-29T04:12:23.627Z,91.29
2022-10-29T04:17:23.465Z,93.33
2022-10-29T04:19:51.765Z,92.17
2022-10-29T04:30:41.171Z,90.56
2022-10-29T04:33:08.122Z,92.53
2022-10-29T04:35:37.404Z,93.16
2022-10-29T04:38:08.500Z,94.61
2022-10-29T04:40:35.500Z,91.26
2022-10-29T04:43:02.397Z,93.17
2022-10-29T04:45:30.361Z,93.71
2022-10-29T04:48:00.509Z,93.14
2022-10-29T04:50:27.572Z,92.94
2022-10-29T04:52:58.722Z,90.39
2022-10-29T04:55:27.146Z,89.84
2022-10-29T04:57:54.462Z,90.79
2022-10-29T05:00:22.558Z,92.89
2022-10-29T05:02:50.067Z,91.70
2022-10-29T05:05:17.717Z,90.98
2022-10-29T05:07:47.176Z,93.98
2022-10-29T05:10:15.868Z,92.98
2022-10-29T05:12:42.966Z,91.38
2022-10-29T05:15:10.816Z,90.41
2022-10-29T05:17:38.472Z,90.24
2022-10-29T05:20:06.218Z,92.49
2022-10-29T05:22:33.206Z,93.62
2022-10-29T05:25:00.110Z,94.12
2022-10-29T05:27:28.369Z,94.41
2022-10-29T05:29:55.825Z,95.93
2022-10-29T05:32:22.948Z,96.82
2022-10-29T05:34:50.084Z,96.41
2022-10-29T05:37:17.286Z,95.50
2022-10-29T05:39:44.184Z,96.02
2022-10-29T05:42:11.109Z,92.69
2022-10-29T05:44:40.787Z,95.65
2022-10-29T05:47:08.997Z,96.35
2022-10-29T05:49:36.143Z,93.84
2022-10-29T05:52:03.364Z,95.20
2022-10-29T05:54:32.358Z,96.23
2022-10-29T05:56:59.300Z,93.43
2022-10-29T05:59:31.029Z,95.02
2022-10-29T06:02:02.842Z,94.38
2022-10-29T06:04:35.734Z,92.22
2022-10-29T06:07:03.943Z,93.00
2022-10-29T06:09:32.056Z,91.93
2022-10-29T06:11:59.019Z,92.26
2022-10-29T06:14:26.314Z,91.75
2022-10-29T06:16:53.354Z,91.76
2022-10-29T06:19:21.799Z,89.80
2022-10-29T06:21:48.936Z,91.95
2022-10-29T06:24:17.215Z,92.24
2022-10-29T06:26:44.406Z,91.16
2022-10-29T06:29:11.663Z,91.63
2022-10-29T06:31:40.529Z,91.56
2022-10-29T06:34:07.764Z,91.94
2022-10-29T06:36:36.330Z,91.54
2022-10-29T06:39:03.537Z,90.49
2022-10-29T06:41:30.257Z,91.95
2022-10-29T06:43:59.181Z,92.42
2022-10-29T06:46:26.186Z,92.97
2022-10-29T06:48:54.365Z,91.82
2022-10-29T06:53:58.631Z,91.94
2022-10-29T06:56:27.045Z,92.19
2022-10-29T06:58:54.957Z,91.03
2022-10-29T07:01:26.527Z,91.74
2022-10-29T07:03:57.133Z,91.78
2022-10-29T07:06:24.167Z,91.05
2022-10-29T07:08:50.964Z,90.55
2022-10-29T07:11:22.405Z,87.94
2022-10-29T07:13:49.154Z,89.73
2022-10-29T07:16:15.915Z,91.50
2022-10-29T07:18:43.025Z,93.28
2022-10-29T07:21:11.918Z,93.74
2022-10-29T07:23:39.053Z,92.30
2022-10-29T07:26:07.509Z,91.39
2022-10-29T07:28:35.819Z,91.08
2022-10-29T07:31:03.561Z,90.20
2022-10-29T07:33:31.105Z,85.48
2022-10-29T07:35:59.626Z,82.78
2022-10-29T07:38:26.909Z,86.26
2022-10-29T07:40:54.116Z,85.96
2022-10-29T07:43:21.960Z,84.14
2022-10-29T07:45:56.489Z,82.90
2022-10-29T07:48:23.501Z,78.87
2022-10-29T07:50:50.579Z,76.94
2022-10-29T07:53:17.716Z,78.40
2022-10-29T07:55:45.878Z,75.48
2022-10-29T07:58:12.941Z,74.79
2022-10-29T08:00:41.205Z,76.94
2022-10-29T08:03:14.345Z,78.31
2022-10-29T08:05:44.033Z,79.06
2022-10-29T08:08:10.824Z,76.49
2022-10-29T08:10:39.187Z,76.21
2022-10-29T08:13:06.826Z,75.42
2022-10-29T08:15:34.861Z,73.72
2022-10-29T08:18:03.215Z,71.11
2022-10-29T08:20:32.129Z,69.35
2022-10-29T08:23:00.552Z,68.87
2022-10-29T08:25:29.667Z,68.23
2022-10-29T08:28:02.623Z,67.94
2022-10-29T08:30:32.219Z,67.94
2022-10-29T08:33:01.207Z,68.93
2022-10-29T08:35:28.808Z,67.00
2022-10-29T08:37:59.421Z,66.38
2022-10-29T08:40:29.961Z,66.30
2022-10-29T08:43:39.365Z,66.88
2022-10-29T08:46:19.455Z,65.84
2022-10-29T08:48:54.145Z,65.29
2022-10-29T08:51:25.754Z,65.17
2022-10-29T08:54:25.008Z,63.49
2022-10-29T08:56:47.285Z,63.96
2022-10-29T08:59:19.601Z,63.94
2022-10-29T09:01:47.914Z,63.46
2022-10-29T09:04:22.792Z,62.19
2022-10-29T09:07:05.799Z,61.82
2022-10-29T09:09:44.130Z,63.43
2022-10-29T09:12:33.831Z,63.42
2022-10-29T09:15:17.167Z,62.17
2022-10-29T09:17:56.121Z,62.74
2022-10-29T09:20:33.795Z,62.42
2022-10-29T09:23:07.394Z,61.63
2022-10-29T09:25:45.934Z,60.95
2022-10-29T09:28:26.161Z,61.83
2022-10-29T09:31:03.402Z,60.33
2022-10-29T09:33:31.939Z,60.78
2022-10-29T09:36:00.418Z,60.25
2022-10-29T09:38:32.237Z,59.58
2022-10-29T09:41:02.014Z,59.12
2022-10-29T09:43:38.042Z,59.15
2022-10-29T09:46:13.838Z,60.37
2022-10-29T09:48:51.451Z,60.58
2022-10-29T09:51:26.304Z,60.33
2022-10-29T09:53:55.059Z,59.23
2022-10-29T09:56:23.318Z,59.34
2022-10-29T09:58:55.490Z,60.59
2022-10-29T10:01:22.358Z,59.79
2022-10-29T10:03:59.022Z,59.49
2022-10-29T10:06:26.053Z,58.47
2022-10-29T10:09:03.695Z,59.24
2022-10-29T10:11:37.710Z,58.26
2022-10-29T10:14:13.605Z,60.50
2022-10-29T10:16:41.313Z,60.45
2022-10-29T10:19:22.769Z,60.63
2022-10-29T10:21:58.159Z,60.02
2022-10-29T10:24:34.321Z,59.58
2022-10-29T10:27:28.966Z,57.84
2022-10-29T10:30:11.904Z,56.46
2022-10-29T10:32:39.671Z,56.93
2022-10-29T10:35:29.639Z,57.00
2022-10-29T10:37:58.970Z,58.43
2022-10-29T10:40:27.088Z,57.21
2022-10-29T10:42:56.076Z,56.35
2022-10-29T10:45:28.503Z,57.25
2022-10-29T10:47:58.099Z,55.73
2022-10-29T10:50:28.719Z,56.17
2022-10-29T10:52:58.592Z,56.62
2022-10-29T10:55:31.295Z,57.99
2022-10-29T10:58:05.892Z,57.95
2022-10-29T11:00:38.955Z,57.43
2022-10-29T11:03:15.478Z,57.94
2022-10-29T11:05:49.965Z,59.34
2022-10-29T11:08:22.934Z,58.88
2022-10-29T11:10:56.760Z,59.01
2022-10-29T11:13:29.369Z,59.85
2022-10-29T11:16:05.591Z,59.28
2022-10-29T11:18:37.977Z,58.65
2022-10-29T11:21:11.574Z,59.43
2022-10-29T11:23:46.471Z,58.99
2022-10-29T11:26:25.780Z,58.00
2022-10-29T11:28:59.450Z,59.48
2022-10-29T11:31:32.441Z,59.75
2022-10-29T11:34:08.330Z,59.88
2022-10-29T11:36:41.455Z,61.32
2022-10-29T11:39:13.344Z,62.12
2022-10-29T11:41:46.860Z,64.72
2022-10-29T11:44:17.372Z,64.51
2022-10-29T11:46:59.534Z,64.26
2022-10-29T11:49:42.611Z,65.52
2022-10-29T11:52:13.963Z,64.35
2022-10-29T11:55:04.284Z,65.05
2022-10-29T11:57:41.392Z,65.01
2022-10-29T12:00:17.861Z,65.38
2022-10-29T12:03:07.664Z,66.92
2022-10-29T12:05:42.419Z,66.22
2022-10-29T12:08:25.885Z,65.97
2022-10-29T12:10:58.582Z,66.70
2022-10-29T12:13:43.280Z,66.88
2022-10-29T12:16:25.868Z,67.39
2022-10-29T12:19:06.080Z,66.70
2022-10-29T12:21:40.289Z,66.56
2022-10-29T12:24:21.617Z,66.81
2022-10-29T12:26:55.046Z,65.71
2022-10-29T12:29:27.685Z,65.62
2022-10-29T12:32:03.735Z,65.75
2022-10-29T12:34:37.013Z,65.09
2022-10-29T12:37:12.371Z,65.37
2022-10-29T12:39:44.732Z,63.76
2022-10-29T12:42:16.804Z,63.49
2022-10-29T12:44:50.785Z,62.86
2022-10-29T12:47:24.850Z,62.38
2022-10-29T12:50:05.218Z,62.73
2022-10-29T12:52:40.637Z,62.41
2022-10-29T12:55:12.930Z,62.34
2022-10-29T12:57:40.077Z,63.39
2022-10-29T13:00:32.299Z,62.99
2022-10-29T13:03:02.414Z,60.92
2022-10-29T13:05:39.082Z,61.24
2022-10-29T13:08:33.087Z,61.11
2022-10-29T13:11:22.295Z,61.51
2022-10-29T13:13:55.881Z,60.95
2022-10-29T13:16:30.688Z,61.98
2022-10-29T13:19:33.024Z,61.65
2022-10-29T13:22:21.248Z,62.06
2022-10-29T13:25:51.768Z,62.31
2022-10-29T13:29:01.220Z,62.16
2022-10-29T13:31:49.871Z,61.68
2022-10-29T13:34:56.331Z,62.21
2022-10-29T13:37:57.876Z,61.76
2022-10-29T13:40:56.581Z,62.51
2022-10-29T13:43:25.362Z,62.32
2022-10-29T13:46:02.686Z,62.16
2022-10-29T13:48:34.098Z,62.13
2022-10-29T13:51:06.764Z,62.63
2022-10-29T13:53:41.916Z,62.41
2022-10-29T13:56:13.641Z,62.55
2022-10-29T13:58:45.606Z,62.67
2022-10-29T14:01:17.247Z,63.23
2022-10-29T14:03:58.812Z,64.65
2022-10-29T14:06:33.016Z,65.48
2022-10-29T14:09:12.606Z,66.25
2022-10-29T14:11:43.106Z,65.58
2022-10-29T14:14:27.078Z,66.24
2022-10-29T14:17:09.702Z,68.06
2022-10-29T14:19:36.781Z,68.96
2022-10-29T14:22:21.183Z,68.90
2022-10-29T14:24:48.627Z,68.84
2022-10-29T14:27:23.819Z,69.11
2022-10-29T14:29:53.132Z,72.43
2022-10-29T14:32:23.201Z,69.86
2022-10-29T14:34:51.111Z,69.71
2022-10-29T14:37:28.464Z,68.97
2022-10-29T14:39:59.007Z,69.20
2022-10-29T14:42:31.275Z,68.82
2022-10-29T14:45:01.614Z,69.54
2022-10-29T14:47:33.979Z,71.16
2022-10-29T14:50:02.986Z,71.42
2022-10-29T14:52:34.689Z,71.97
2022-10-29T14:55:07.193Z,72.08
2022-10-29T14:57:41.397Z,72.62
2022-10-29T15:00:08.428Z,72.99
2022-10-29T15:02:39.666Z,73.15
2022-10-29T15:05:23.397Z,73.39
2022-10-29T15:07:51.950Z,75.35
2022-10-29T15:10:22.225Z,76.59
2022-10-29T15:12:50.704Z,80.40
2022-10-29T15:15:29.369Z,80.55
2022-10-29T15:18:02.101Z,82.09
2022-10-29T15:20:37.007Z,83.00
2022-10-29T15:23:06.837Z,85.70
2022-10-29T15:25:40.835Z,87.76
2022-10-29T15:28:11.092Z,88.95
2022-10-29T15:30:41.814Z,90.45
2022-10-29T15:33:16.802Z,93.56
2022-10-29T15:35:49.740Z,95.43
2022-10-29T15:38:53.445Z,95.99
2022-10-29T15:41:36.933Z,95.44
2022-10-29T15:44:04.004Z,91.79
2022-10-29T15:46:38.285Z,92.58
2022-10-29T15:49:15.006Z,90.81
2022-10-29T15:51:42.123Z,88.83
2022-10-29T15:54:13.411Z,89.28
2022-10-29T15:56:43.608Z,88.13
2022-10-29T15:59:12.719Z,89.16
2022-10-29T16:01:40.085Z,89.62
2022-10-29T16:04:10.044Z,88.35
2022-10-29T16:06:37.474Z,87.91
2022-10-29T16:09:05.124Z,88.62
2022-10-29T16:11:34.917Z,87.50
2022-10-29T16:14:01.844Z,87.18
2022-10-29T16:16:31.365Z,87.28
2022-10-29T16:18:58.459Z,87.31
2022-10-29T16:21:26.482Z,87.32
2022-10-29T16:23:56.839Z,86.42
2022-10-29T16:26:25.217Z,85.86
2022-10-29T16:28:55.086Z,88.25
2022-10-29T16:31:24.349Z,88.20
2022-10-29T16:33:57.479Z,88.86
2022-10-29T16:36:24.799Z,87.84
2022-10-29T16:38:51.918Z,88.06
2022-10-29T16:41:20.543Z,87.34
2022-10-29T16:43:49.819Z,88.52
2022-10-29T16:46:18.442Z,88.58
2022-10-29T16:48:49.100Z,89.32
2022-10-29T16:51:19.127Z,88.67
2022-10-29T16:53:47.060Z,87.44
2022-10-29T16:56:13.809Z,87.04
2022-10-29T16:58:41.831Z,86.87
2022-10-29T17:01:09.535Z,86.69
2022-10-29T17:03:38.325Z,87.28
2022-10-29T17:06:07.455Z,88.26
2022-10-29T17:08:35.142Z,89.20
2022-10-29T17:11:03.422Z,88.89
2022-10-29T17:13:30.715Z,89.06
2022-10-29T17:15:57.732Z,89.90
2022-10-29T17:18:24.660Z,89.96
2022-10-29T17:20:57.486Z,88.24
2022-10-29T17:23:24.670Z,89.13
2022-10-29T17:25:52.519Z,88.22
2022-10-29T17:28:20.604Z,87.58
2022-10-29T17:30:47.751Z,91.54
2022-10-29T17:33:16.077Z,86.41
2022-10-29T17:35:43.507Z,86.01
2022-10-29T17:38:11.968Z,86.21
2022-10-29T17:40:39.225Z,85.93
2022-10-29T17:43:06.200Z,85.54
2022-10-29T17:45:33.033Z,86.90
2022-10-29T17:48:00.413Z,86.78
2022-10-29T17:50:28.020Z,87.41
2022-10-29T17:52:55.201Z,85.48
2022-10-29T17:55:23.750Z,85.44
2022-10-29T17:57:50.490Z,85.14
2022-10-29T18:00:17.826Z,84.74
2022-10-29T18:02:44.698Z,85.70
2022-10-29T18:05:12.656Z,86.19
2022-10-29T18:07:39.392Z,87.20
2022-10-29T18:10:07.443Z,87.74
2022-10-29T18:12:35.929Z,87.38
2022-10-29T18:15:03.793Z,85.47
2022-10-29T18:17:31.905Z,84.77
2022-10-29T18:19:58.815Z,85.20
2022-10-29T18:22:27.061Z,84.60
2022-10-29T18:24:54.952Z,83.38
2022-10-29T18:27:21.796Z,81.70
2022-10-29T18:29:55.494Z,81.56
2022-10-29T18:32:22.563Z,81.18
2022-10-29T18:34:51.392Z,81.70
2022-10-29T18:37:18.198Z,80.57
2022-10-29T18:39:45.094Z,81.51
2022-10-29T18:42:11.935Z,82.43
2022-10-29T18:44:38.700Z,82.09
2022-10-29T18:47:07.063Z,82.77
2022-10-29T18:49:34.865Z,83.73
2022-10-29T18:52:02.686Z,83.33
2022-10-29T18:54:29.495Z,80.54
2022-10-29T18:56:56.425Z,83.61
2022-10-29T18:59:23.237Z,81.51
2022-10-29T19:01:50.282Z,82.40
2022-10-29T19:04:18.828Z,82.59
2022-10-29T19:06:45.887Z,82.99
2022-10-29T19:09:12.716Z,83.60
2022-10-29T19:11:41.613Z,82.76
2022-10-29T19:14:12.373Z,84.09
2022-10-29T19:16:39.499Z,84.05
2022-10-29T19:19:08.407Z,79.48
2022-10-29T19:21:38.015Z,79.16
2022-10-29T19:24:06.031Z,78.93
2022-10-29T19:26:35.059Z,80.09
2022-10-29T19:29:03.333Z,82.72
2022-10-29T19:31:31.413Z,78.45
2022-10-29T19:34:01.317Z,79.38
2022-10-29T19:36:29.722Z,79.56
2022-10-29T19:38:58.937Z,79.71
2022-10-29T19:41:25.825Z,80.69
2022-10-29T19:43:53.794Z,80.39
2022-10-29T19:46:21.764Z,80.65
2022-10-29T19:48:50.353Z,81.99
2022-10-29T19:51:17.450Z,82.57
2022-10-29T19:53:44.407Z,85.55
2022-10-29T19:56:14.732Z,84.40
2022-10-29T19:58:42.260Z,85.40
2022-10-29T20:01:13.031Z,86.29
2022-10-29T20:03:39.904Z,87.21
2022-10-29T20:06:07.346Z,88.27
2022-10-29T20:08:34.138Z,87.47
2022-10-29T20:11:02.181Z,85.85
2022-10-29T20:13:30.496Z,84.80
2022-10-29T20:15:59.723Z,83.80
2022-10-29T20:18:26.591Z,85.06
2022-10-29T20:20:54.821Z,84.47
2022-10-29T20:23:21.755Z,86.14
2022-10-29T20:25:48.625Z,86.92
2022-10-29T20:28:15.383Z,84.05
2022-10-29T20:30:46.957Z,87.68
2022-10-29T20:33:13.741Z,89.40
2022-10-29T20:35:40.793Z,88.57
2022-10-29T20:38:07.555Z,86.90
2022-10-29T20:40:36.436Z,82.89
2022-10-29T20:43:03.265Z,84.11
2022-10-29T20:45:30.216Z,85.38
2022-10-29T20:48:01.632Z,85.59
2022-10-29T20:50:28.522Z,84.34
2022-10-29T20:52:55.710Z,85.14
2022-10-29T20:55:22.581Z,85.62
2022-10-29T20:57:49.547Z,85.53
2022-10-29T21:00:16.619Z,86.58
2022-10-29T21:02:43.874Z,87.90
2022-10-29T21:05:12.160Z,87.90
2022-10-29T21:07:39.466Z,90.27
2022-10-29T21:10:07.710Z,86.69
2022-10-29T21:12:35.701Z,86.44
2022-10-29T21:15:02.449Z,85.31
2022-10-29T21:17:30.412Z,84.72
2022-10-29T21:19:57.166Z,89.48
2022-10-29T21:22:25.563Z,85.07
2022-10-29T21:24:52.283Z,82.94
2022-10-29T21:27:19.390Z,84.46
2022-10-29T21:29:46.117Z,81.71
2022-10-29T21:32:16.744Z,82.32
2022-10-29T21:34:43.905Z,82.78
2022-10-29T21:37:10.865Z,82.08
2022-10-29T21:39:39.997Z,83.47
2022-10-29T21:42:06.724Z,83.37
2022-10-29T21:44:33.666Z,84.76
2022-10-29T21:47:00.425Z,84.46
2022-10-29T21:49:27.373Z,85.38
2022-10-29T21:51:54.125Z,82.56
2022-10-29T21:54:23.087Z,80.62
2022-10-29T21:56:53.908Z,81.81
2022-10-29T21:59:21.865Z,81.21
2022-10-29T22:01:48.700Z,81.85
2022-10-29T22:04:15.776Z,83.47
2022-10-29T22:06:42.627Z,82.85
2022-10-29T22:09:10.453Z,82.73
2022-10-29T22:11:37.274Z,83.85
2022-10-29T22:14:05.478Z,80.27
2022-10-29T22:16:32.222Z,82.09
2022-10-29T22:18:59.253Z,80.61
2022-10-29T22:21:26.549Z,80.14
2022-10-29T22:23:56.223Z,80.85
2022-10-29T22:26:25.146Z,82.08
2022-10-29T22:28:53.542Z,82.24
2022-10-29T22:31:23.658Z,82.07
2022-10-29T22:33:51.111Z,83.19
2022-10-29T22:36:20.158Z,82.89
2022-10-29T22:38:47.166Z,82.92
2022-10-29T22:41:16.449Z,83.12
2022-10-29T22:43:43.885Z,83.04
2022-10-29T22:46:13.099Z,81.82
2022-10-29T22:48:41.426Z,81.13
2022-10-29T22:51:12.892Z,85.14
2022-10-29T22:53:39.626Z,85.40
2022-10-29T22:56:07.097Z,83.38
2022-10-29T22:58:33.862Z,79.87
2022-10-29T23:01:02.291Z,80.21
2022-10-29T23:03:29.228Z,81.72
2022-10-29T23:05:58.081Z,81.55
2022-10-29T23:08:24.948Z,81.17
2022-10-29T23:10:53.973Z,79.51
2022-10-29T23:13:21.019Z,82.89
2022-10-29T23:15:48.267Z,84.40
2022-10-29T23:18:15.453Z,84.23
2022-10-29T23:20:43.572Z,83.92
2022-10-29T23:23:12.539Z,85.58
2022-10-29T23:25:40.519Z,84.87
2022-10-29T23:28:08.297Z,83.02
2022-10-29T23:30:35.315Z,82.89
2022-10-29T23:33:03.408Z,81.61
2022-10-29T23:35:30.211Z,82.43
2022-10-29T23:37:57.296Z,81.21
2022-10-29T23:40:25.794Z,84.23
2022-10-29T23:42:54.591Z,82.40
2022-10-29T23:45:21.308Z,81.81
2022-10-29T23:47:48.261Z,80.87
2022-10-29T23:50:15.448Z,80.77
2022-10-29T23:52:42.433Z,81.00
2022-10-29T23:55:09.663Z,81.04
2022-10-29T23:57:39.509Z,84.38
